Current Weather

Beverly Municipal Airport

Beverly Municipal Airport, Massachusetts (KBVY)

Report from: Sunday, May 22, 2022 3:53 AM EDT
Current time: Sunday, May 22, 2022 4:17 AM EDT

Nearby weather
Weather history
Weather forecast

Present weatherMist
Temperature13.3°C (55.9°F)
Dew point12.8°C (55.0°F)
Winds Calm
Visibility6 mi. (9.7 km)
Clouds Ceiling: Overcast 200 ft. (61 m)
Altimeter29.98 in.Hg (1015 mB)
Relative humidity97 %
Density altitude-63 ft. (-19 m)
Sea-level pressure101.5 kPa (1015 mB, 29.96 in.Hg)
Remarks Fully automated report
Automated weather observing station with precipitation discriminator
Lightning detection system not operating
Flight conditions Low Instrument Meteorological Conditions
Raw dataKBVY 220753Z AUTO 00000KT 6SM BR OVC002 13/13 A2998 RMK AO2 SLP147 T01330128 TSNO
An error has occurred. This application may no longer respond until reloaded. Reload 🗙